SBSN/STM METAR and TAF weather

Enter ICAO airport designator
Station Type Date Time Source
SBSN METAR 2021/05/12 05:00 UTC NOAA

SBSN 120500Z 07008KT 9999 SCT015 BKN100 26/25 Q1012


Station Type Date Time Source
SBSN Decoded METAR 2021/05/12 05:00 UTC NOAA

Santarem-Aeroporto, Brazil (SBSN) 02-26S 054-43W 72M
May 12, 2021 - 01:00 AM EDT / 2021.05.12 0500 UTC
Wind: from the ENE (070 degrees) at 9 MPH (8 KT):0
Visibility: greater than 7 mile(s):0
Sky conditions: mostly cloudy
Temperature: 78 F (26 C)
Dew Point: 77 F (25 C)
Relative Humidity: 94%
Pressure (altimeter): 29.88 in. Hg (1012 hPa)
ob: SBSN 120500Z 07008KT 9999 SCT015 BKN100 26/25 Q1012
cycle: 5

Station Type Date Time Source
SBSN TAF 2021/05/12 06:51 UTC NOAA

TAF SBSN 1206/1306 00000KT 9999 SCT015 FEW020TCU TX30/1218Z TN23/1306Z PROB40
TEMPO 1206/1212 4000 TSRA BKN015 FEW020CB
BECMG 1212/1214 07008KT
BECMG 1216/1218 03005KT SCT020 FEW025TCU
BECMG 1300/1302 00000KT FEW015
RMK PGY

Example: see airport list